Tiempo atmosférico en la estación meteorológica de Aragüés Del Puerto, Huesca (1120 m.)



Fecha
DESCASC
Temp. máxima en grados centígrados (hora)
DESCASC
Temp. mínima en grados centígrados (hora)
DESCASC
Temp. media en grados centígrados
DESCASC
Racha de viento máxima en m/sg (hora)
DESCASC
Velocidad máxima media en intervalos de 10 minutos(hora)
DESCASC
Precipitaciones diarias en mm
DESCASC
Precipitaciones de 00:00 a 06:00 en mm
DESCASC
Precipitaciones de 06:00 a 12:00 en mm
DESCASC
Precipitaciones de 12:00 a 18:00 en mm
DESCASC
Precipitaciones de 18:00 a 24:00 en mm
DESCASC
25-04-2019 9.4 (16:10) 3 (18:00) 6.2 12.78 (16:50) 6.39 (02:50) 17.4 8.8 3.8 3.6 1.2
24-04-2019 7.1 (23:10) 0.4 (07:30) 3.7 12.5 (20:30) 6.11 (22:10) 23.8 0.2 6.2 2.4 15
23-04-2019 12.8 (14:30) 3.8 (23:20) 8.3 11.11 (16:30) 6.11 (16:40) 12.8 0 0 4.8 8
22-04-2019 14.6 (18:30) 5 (00:00) 9.8 5.28 (16:00) 3.06 (20:00) 0 0 0 0 0
21-04-2019 10.8 (18:30) 5.6 (00:00) 8.2 4.72 (06:40) 2.78 (06:30) 2.8 0 2.8 0 0
20-04-2019 18.9 (14:00) 7.9 (00:00) 13.4 12.5 (19:20) 7.22 (18:50) 2 0 0 0 2
19-04-2019 18.8 (18:30) 8.7 (00:00) 13.7 11.11 (04:00) 5 (04:00) 0 0 0 0 0
18-04-2019 19.1 (14:50) 8.9 (00:00) 14 15.56 (13:00) 7.22 (15:10) 0.2 0 0 0.2 0
17-04-2019 19.6 (16:40) 6.5 (00:00) 13.1 11.94 (13:40) 7.22 (13:30) 0 0 0 0 0
16-04-2019 16.8 (16:50) 5 (00:00) 10.9 8.61 (17:30) 5 (18:00) 1.6 1.6 0 0 0
15-04-2019 19.9 (16:40) 8.4 (00:00) 14.1 14.72 (20:50) 5.83 (16:10) 13.4 0 0 0 13.4
14-04-2019 18.5 (15:20) 7.1 (00:00) 12.8 14.17 (16:40) 5.56 (15:50) 0 0 0 0 0
13-04-2019 18 (16:00) 1.3 (00:00) 9.6 10.83 (17:00) 7.5 (16:30) 0 0 0 0 0
12-04-2019 13.8 (14:50) 4.1 (00:00) 9 16.11 (04:10) 8.33 (12:10) 0 0 0 0 0
11-04-2019 10.2 (11:20) 2.9 (00:00) 6.5 12.78 (00:20) 7.78 (00:10) 0 0 0 0 0
10-04-2019 11.5 (14:40) 0.6 (00:00) 6.1 14.17 (15:30) 9.17 (15:30) 0 0 0 0 0
09-04-2019 13.1 (14:40) 2.5 (00:00) 7.8 9.72 (16:10) 4.72 (13:30) 0.4 0 0 0.4 0
08-04-2019 12.2 (17:40) 3 (00:00) 7.6 6.11 (21:30) 4.72 (00:20) 1.2 0 0.2 1 0
07-04-2019 10.3 (16:30) 0.2 (00:00) 5.3 10 (14:20) 5 (17:20) 5.2 4.8 0.4 0 0
06-04-2019 4.8 (15:50) 0.1 (00:00) 2.5 8.61 (16:20) 4.72 (16:20) 14.4 6 3.6 2.4 2.4
05-04-2019 5.6 (02:30) 1.3 (00:00) 3.4 11.39 (06:40) 6.39 (07:30) 6.4 0 0.6 1.6 4.2
04-04-2019 8.3 (17:10) -2.3 (-00:0) 3 8.61 (15:00) 4.17 (16:00) 0 0 0 0 0
03-04-2019 6.7 (17:20) -0.1 (00:00) 3.3 10.83 (17:50) 4.44 (17:50) 5.6 1.8 2.6 1.2 0
02-04-2019 15.2 (17:10) 5.3 (00:00) 10.3 11.67 (18:30) 5.28 (15:30) 1.2 1.2 0 0 0
01-04-2019 10.5 (15:40) 5.3 (00:00) 7.9 6.67 (14:10) 3.33 (16:00) 2.2 0 1.8 0.4 0
31-03-2019 15.3 (14:10) 3.1 (00:00) 9.2 7.22 (14:10) 4.44 (15:00) 0 0 0 0 0
30-03-2019 16 (14:50) 3.1 (00:00) 9.5 8.89 (15:10) 5 (03:40) 0 0 0 0 0
29-03-2019 15.4 (16:20) 4.8 (00:00) 10.1 10.56 (12:00) 5.56 (14:30) 0 0 0 0 0
28-03-2019 17.1 (15:20) 1.2 (00:00) 9.2 8.06 (17:20) 4.17 (15:30) 0 0 0 0 0
27-03-2019 16.3 (13:50) 1.1 (00:00) 8.7 17.78 (17:10) 10.83 (17:30) 0 0 0 0 0

Gráficas

Temp. máximas Temp. mínimas Temp. medias Precipitaciones Rachas de viento máximas Velocidades máximas media en intervalos de 10 minutos

Datos horarios

Fecha y hora oficial Temperatura (ºC) Velocidad del viento (km/h) Dirección del viento Racha (km/h) Dirección de racha Precipitación (mm) Presión (hPa) Tendencia (hPa) Humedad (%)
2019-04-25 23:00:00 4.7 13 Nordeste 21 Nordeste 0 896.4 2.1 84
2019-04-25 22:00:00 4.7 10 Oeste 26 Norte 0 895.7 1.4 83
2019-04-25 21:00:00 4 13 Nordeste 23 Nordeste 0 894.6 0.4 88
2019-04-25 20:00:00 5.1 8 Norte 22 Nordeste 0 894.3 1.5 84
2019-04-25 19:00:00 4.8 3 Noroeste 24 Nordeste 1.2 894.3 1.6 87
2019-04-25 18:00:00 3.1 9 Norte 42 Oeste 3.4 894.2 1.3 87
2019-04-25 17:00:00 7.9 23 Sudeste 46 Sur 0 892.8 -0.1 70
2019-04-25 16:00:00 9.3 14 Sudeste 30 Sudeste 0 892.7 -0.4 61
2019-04-25 15:00:00 7.7 9 Este 24 Sudeste 0 892.9 0.4 75
2019-04-25 14:00:00 6.3 8 Este 19 Este 0 892.9 1 73
2019-04-25 13:00:00 6.5 4 Sudoeste 28 Sur 0.2 893.1 2.1 76
2019-04-25 12:00:00 6.9 14 Sur 33 Sur 0 892.5 2 70
2019-04-25 11:00:00 7.1 18 Sudeste 33 Sur 0 891.9 2.1 77
2019-04-25 10:00:00 6.6 9 Sudeste 18 Sudeste 0 891 2.7 87
2019-04-25 09:00:00 5.6 5 Noroeste 9 Oeste 0 890.5 2.3 90
2019-04-25 08:00:00 5.9 8 Sur 32 Sudoeste 1.4 889.8 2.1 87
2019-04-25 07:00:00 6.6 9 Sudoeste 31 Oeste 2.4 888.3 1.1 85
2019-04-25 06:00:00 7.8 20 Sur 41 Sudeste 3.4 888.2 -0.3 92
2019-04-25 05:00:00 7.9 14 Sudeste 36 Sudeste 1.4 887.7 -1.2 90
2019-04-25 04:00:00 8 19 Sudeste 42 Sur 0.2 887.2 -2 87
2019-04-25 03:00:00 8.1 21 Sudeste 42 Sudeste 0 888.5 -0.7 85
2019-04-25 02:00:00 7.7 14 Sur 41 Sudeste 0 888.9 0.5 87
2019-04-25 01:00:00 7.3 15 Sudeste 32 Sur 3.8 889.2 1.7 89
2019-04-25 00:00:00 7.1 8 Oeste 28 Sudeste 8.6 889.2 1.6 93
2019-04-24 23:00:00 6.9 16 Sudeste 43 Sur 3 888.4 0.1 90
2019-04-24 22:00:00 6.4 19 Sudeste 45 Sudeste 2.2 887.5 -1.3 87
2019-04-24 21:00:00 5.9 17 Sudeste 45 Sudeste 0.8 887.6 -1.7 87
2019-04-24 20:00:00 5.6 18 Sudeste 40 Sudeste 0.2 888.3 -1.3 84
2019-04-24 19:00:00 5.2 18 Sudeste 39 Sudeste 0.2 888.8 -0.9 84
2019-04-24 18:00:00 5 19 Sudeste 40 Sudeste 0.8 889.3 -0.7 83
2019-04-24 17:00:00 4.6 6 Este 31 Sudeste 0 889.6 0.2 83
2019-04-24 16:00:00 3.6 10 Sudeste 31 Sudeste 0.6 889.7 0.6 87
2019-04-24 15:00:00 3.2 15 Sudeste 36 Sudeste 0.4 890 1.5 87
2019-04-24 14:00:00 3.3 21 Sudeste 35 Sudeste 0.6 889.4 1.5 86
2019-04-24 13:00:00 4.4 20 Sudeste 37 Sur 0 889.1 2 79
2019-04-24 12:00:00 4.7 13 Sudeste 30 Sur 0 888.5 1.8 81
2019-04-24 11:00:00 3.4 8 Sudeste 18 Sudeste 0.2 887.9 1.8 86
2019-04-24 10:00:00 3 8 Este 16 Este 0 887.1 1.4 87
2019-04-24 09:00:00 1.4 3 Noroeste 15 Nordeste 0.6 886.7 1.8 92
2019-04-24 08:00:00 1.1 6 Nordeste 13 Norte 2.4 886.1 1.4 93
2019-04-24 07:00:00 0.8 5 Norte 25 Sudoeste 3 885.7 1 92
2019-04-24 06:00:00 4.1 15 Sur 32 Sudoeste 0 884.9 0.2 85
2019-04-24 05:00:00 4.6 4 Sudeste 10 Nordeste 0 884.7 0.2 83
2019-04-24 04:00:00 4.8 5 Sudoeste 16 Este 0 884.7 0.3 84
2019-04-24 03:00:00 4.8 2 Sudoeste 12 Oeste 0 884.7 0.3 87
2019-04-24 02:00:00 4.5 3 Sudoeste 21 Nordeste 0 884.5 0.5 86
2019-04-24 01:00:00 4.6 5 Nordeste 10 Norte 0.2 884.4 1.6 88
2019-04-24 00:00:00 4.1 4 Oeste 30 Nordeste 0.2 884.4 2.4 89
2019-04-23 23:00:00 4.3 14 Nordeste 39 Sudoeste 2.6 884 1.9 89
2019-04-23 22:00:00 6.7 4 Noroeste 18 Nordeste 0.4 882.8 0.7 83
2019-04-23 21:00:00 6.4 10 Nordeste 31 Nordeste 0 882 0.1 86
2019-04-23 20:00:00 6.9 12 Norte 18 Nordeste 2.4 882.1 -0.1 90
2019-04-23 19:00:00 7.1 6 Sudoeste 24 Nordeste 2.4 882.1 1 87
2019-04-23 18:00:00 7.6 13 Nordeste 26 Norte 3.6 881.9 0.3 87
2019-04-23 17:00:00 7.9 9 Oeste 40 Sudoeste 1.2 882.2 0.3 86
2019-04-23 16:00:00 12.5 14 Este 30 Este 0 881.1 -1 58
2019-04-23 15:00:00 11.8 8 Sudeste 28 Sur 0 881.6 -0.4 68
2019-04-23 14:00:00 11.6 12 Sur 20 Sur 0 881.9 0.1 65
2019-04-23 13:00:00 10.6 12 Sudeste 28 Sudeste 0 882.1 0.5 73
2019-04-23 12:00:00 10.6 10 Este 17 Sur 0 882 0.4 73
2019-04-23 11:00:00 10.2 6 Sur 18 Sur 0 881.8 0.3 74
2019-04-23 10:00:00 10.2 11 Sur 17 Sur 0 881.6 0.1 75
2019-04-23 09:00:00 9.5 4 Oeste 9 Noroeste 0 881.6 -0.2 77
2019-04-23 08:00:00 9 3 Nordeste 10 Nordeste 0 881.5 -0.7 78
2019-04-23 07:00:00 8.9 7 Norte 14 Norte 0 881.5 -1.2 79
2019-04-23 06:00:00 9.2 6 Norte 15 Nordeste 0 881.8 -1.4 80
2019-04-23 05:00:00 9 7 Nordeste 11 Norte 0 882.2 -1.7 82
2019-04-23 04:00:00 8.5 6 Norte 11 Norte 0 882.7 -1.5 89
2019-04-23 03:00:00 8.7 2 Sur 12 Nordeste 0 883.2 -1.2 86
2019-04-23 02:00:00 8.8 8 Nordeste 13 Norte 0 883.9 -0.6 83
2019-04-23 01:00:00 8.8 6 Nordeste 10 Norte 0 884.2 -0.2 82
2019-04-23 00:00:00 9.2 2 Oeste 5 Sudoeste 0 884.4 0.2 79
2019-04-22 23:00:00 9.6 3 Noroeste 9 Noroeste 0 884.5 0.6 74
2019-04-22 22:00:00 10.9 5 Noroeste 16 Sudoeste 0 884.4 0.5 67
2019-04-22 21:00:00 11.8 4 Norte 14 Oeste 0 884.2 0.1 68
2019-04-22 20:00:00 13 11 Sur 17 Sur 0 883.9 -0.9 57
2019-04-22 19:00:00 13.9 5 Sur 12 Sur 0 883.9 -1.6 52
2019-04-22 18:00:00 14 3 Este 15 Sudeste 0 884.1 -1.9 53
2019-04-22 17:00:00 13.8 6 Sur 17 Sudoeste 0 884.8 -1.6 53
2019-04-22 16:00:00 13.7 9 Sur 19 Sur 0 885.5 -1.6 55
2019-04-22 15:00:00 13.5 8 Sur 16 Sudeste 0 886 -1.5 56
2019-04-22 14:00:00 12.8 5 Sur 13 Sur 0 886.4 -1.3 61
2019-04-22 13:00:00 12.4 8 Sur 15 Sur 0 887.1 -0.6 62
2019-04-22 12:00:00 10.9 6 Sur 10 Sur 0 887.5 -0.2 70
2019-04-22 11:00:00 8.8 0 Calma 6 Sudeste 0 887.7 0.1 77
2019-04-22 10:00:00 7.3 3 Noroeste 6 Oeste 0 887.7 -0.2 79
2019-04-22 09:00:00 5.6 3 Nordeste 8 Norte 0 887.7 -1.2 87
2019-04-22 08:00:00 5.2 5 Norte 13 Nordeste 0 887.6 -2.2 84
2019-04-22 07:00:00 5.2 2 Noroeste 11 Nordeste 0 887.9 -2.9 86
2019-04-22 06:00:00 5 2 Sur 9 Norte 0 888.9 -2.9 87
2019-04-22 05:00:00 5.9 3 Norte 15 Nordeste 0 889.8 -2.9 85
2019-04-22 04:00:00 6.7 8 Norte 13 Nordeste 0 890.8 -2.6 84
2019-04-22 03:00:00 7.6 5 Norte 14 Norte 0 891.8 -1.9 84
2019-04-22 02:00:00 7.9 3 Nordeste 15 Norte 0 892.7 -0.9 84
2019-04-22 01:00:00 7.9 8 Nordeste 14 Nordeste 0 893.4 -0.2 85
2019-04-22 00:00:00 7.9 4 Nordeste 6 Nordeste 0 893.7 0.2 87
2019-04-21 23:00:00 8.3 4 Norte 8 Norte 0 893.6 0.1 85
2019-04-21 22:00:00 8.7 5 Norte 7 Norte 0 893.6 -0.3 82
2019-04-21 21:00:00 9.3 3 Sudoeste 11 Sur 0 893.5 -1.1 78
2019-04-21 20:00:00 10 6 Sur 12 Sudoeste 0 893.5 -1.8 75
2019-04-21 19:00:00 10.6 5 Sudoeste 15 Sudoeste 0 893.9 -1.9 73
2019-04-21 18:00:00 9.8 4 Sudoeste 12 Sudoeste 0 894.6 -2 78
2019-04-21 17:00:00 9.4 5 Sudoeste 15 Sudoeste 0 895.3 -1.8 79
2019-04-21 16:00:00 8.6 8 Sudoeste 16 Oeste 0 895.8 -1.7 80
2019-04-21 15:00:00 8.4 2 Oeste 8 Sur 0 896.6 -1.2 83
2019-04-21 14:00:00 8.3 4 Sudeste 8 Sur 0 897.1 -0.8 86
2019-04-21 13:00:00 7.6 5 Sur 9 Sur 0 897.5 -0.7 88
2019-04-21 12:00:00 7.5 5 Sudeste 9 Sur 0.2 897.8 -0.5 89
2019-04-21 11:00:00 7 2 Sudeste 5 Sur 0 897.9 -0.8 90
2019-04-21 10:00:00 6.1 3 Sur 5 Sur 0 898.2 -1.1 92
2019-04-21 09:00:00 5.8 4 Sur 6 Sur 0 898.3 -1.1 93
2019-04-21 08:00:00 5.7 4 Sudeste 17 Nordeste 0 898.7 -1 92
2019-04-21 07:00:00 5.7 3 Noroeste 17 Sudeste 2.6 899.3 -0.9 92
2019-04-21 06:00:00 6.3 6 Sur 16 Oeste 0 899.4 -1.6 91
2019-04-21 05:00:00 6.6 5 Oeste 16 Sur 0 899.7 -2.4 91
2019-04-21 04:00:00 6.8 3 Sudoeste 16 Sudoeste 0 900.2 -2.2 92
2019-04-21 03:00:00 7 4 Oeste 10 Sudoeste 0 901 -1.5 89
2019-04-21 02:00:00 7.3 5 Sudoeste 11 Sudoeste 0 902.1 -0.4 88
2019-04-21 01:00:00 8.1 2 Norte 11 Noroeste 0 902.4 0 87
2019-04-21 00:00:00 8.5 5 Oeste 10 Noroeste 0 902.5 0.4 84
2019-04-20 23:00:00 8.8 2 Norte 6 Nordeste 0 902.5 0.2 90
2019-04-20 22:00:00 8.8 4 Norte 13 Norte 0.2 902.4 0.7 90
2019-04-20 21:00:00 9 7 Nordeste 15 Noroeste 0.2 902.1 0.8 89
2019-04-20 20:00:00 9.3 11 Norte 45 Norte 1.6 902.3 0.9 83
2019-04-20 19:00:00 11 23 Norte 39 Norte 0 901.7 -0.2 72
2019-04-20 18:00:00 15 16 Sur 23 Sur 0 901.3 -1.2 37
2019-04-20 17:00:00 16.7 6 Sudoeste 17 Noroeste 0 901.4 -1.6 39
2019-04-20 16:00:00 17.9 8 Sudoeste 24 Oeste 0 901.9 -1.6 38
2019-04-20 15:00:00 17.9 13 Sudoeste 24 Sudoeste 0 902.5 -1.4 36
2019-04-20 14:00:00 18.4 12 Sur 26 Sur 0 903 -1.4 33
2019-04-20 13:00:00 17.6 8 Sur 20 Sudoeste 0 903.5 -0.8 45
2019-04-20 12:00:00 16.1 4 Sur 16 Sur 0 903.9 -0.3 55
2019-04-20 11:00:00 14.9 6 Sur 13 Sudeste 0 904.4 0.2 57
2019-04-20 10:00:00 12.7 5 Sudeste 8 Sudeste 0 904.3 0 64
2019-04-20 09:00:00 9.8 3 Este 5 Nordeste 0 904.2 -0.8 74
2019-04-20 08:00:00 9.1 2 Norte 9 Nordeste 0 904.2 -1.3 74
2019-04-20 07:00:00 8.9 2 Sur 16 Norte 0 904.3 -1.2 73
2019-04-20 06:00:00 8.8 6 Norte 19 Norte 0 905 -0.8 70
2019-04-20 05:00:00 8.7 4 Norte 17 Norte 0 905.5 -0.6 69
2019-04-20 04:00:00 8 7 Norte 17 Norte 0 905.5 -0.9 70
2019-04-20 03:00:00 8.7 10 Norte 15 Nordeste 0 905.8 -0.8 67
2019-04-20 02:00:00 9 8 Norte 14 Nordeste 0 906.1 -0.4 65
2019-04-20 01:00:00 9.4 8 Norte 18 Nordeste 0 906.4 0.3 66
2019-04-20 00:00:00 10.1 11 Norte 17 Norte 0 906.6 1.7 64
2019-04-19 23:00:00 11.5 8 Norte 14 Norte 0 906.5 2.2 56
2019-04-19 22:00:00 11.5 3 Norte 15 Noroeste 0 906.1 2.4 58
2019-04-19 21:00:00 14.4 6 Oeste 13 Oeste 0 904.9 1.2 48
2019-04-19 20:00:00 16 8 Sudoeste 21 Sudoeste 0 904.3 0.8 46
2019-04-19 19:00:00 18.6 6 Sudoeste 22 Sudoeste 0 903.7 0.3 34
2019-04-19 18:00:00 18.1 8 Sudoeste 19 Sudoeste 0 903.7 0.2 35
2019-04-19 17:00:00 18.3 7 Sudoeste 19 Sudoeste 0 903.5 0.1 35
2019-04-19 16:00:00 18.3 7 Sur 15 Sur 0 903.4 0.3 33
2019-04-19 15:00:00 18 6 Sur 19 Sur 0 903.5 1 28
2019-04-19 14:00:00 16.5 6 Sur 14 Sur 0 903.4 1.2 32
2019-04-19 13:00:00 15.3 3 Sur 6 Sur 0 903.1 1.3 38
2019-04-19 12:00:00 13.2 0 Calma 5 Sur 0 902.5 1 48
2019-04-19 11:00:00 12 2 Este 6 Nordeste 0 902.2 1.1 53
2019-04-19 10:00:00 10.2 2 Norte 10 Norte 0 901.8 1.3 54
2019-04-19 09:00:00 9 5 Norte 17 Norte 0 901.5 1.6 53
2019-04-19 08:00:00 9.2 8 Norte 17 Norte 0 901.1 1 46
2019-04-19 07:00:00 10.2 8 Norte 14 Nordeste 0 900.5 0.3 41
2019-04-19 06:00:00 11.6 4 Este 19 Este 0 899.9 -1.1 36
2019-04-19 05:00:00 11.4 6 Este 21 Sudeste 0 900.1 -0.6 39
2019-04-19 04:00:00 11.2 18 Sur 40 Sur 0 900.2 0.4 40
2019-04-19 03:00:00 10.2 8 Nordeste 21 Nordeste 0 901 1.5 58
2019-04-19 02:00:00 8.9 5 Norte 12 Nordeste 0 900.7 2.3 75
2019-04-19 01:00:00 9.7 5 Norte 9 Nordeste 0 899.8 1.7 73
2019-04-19 00:00:00 10.4 3 Nordeste 15 Norte 0 899.5 2.3 77
2019-04-18 23:00:00 11.4 9 Norte 13 Nordeste 0 898.4 1.2 73
2019-04-18 22:00:00 11.7 4 Norte 12 Norte 0 898.1 1.1 72
2019-04-18 21:00:00 12.5 6 Noroeste 31 Sudoeste 0 897.2 0.4 69
2019-04-18 20:00:00 13.2 6 Sudoeste 14 Sur 0 897.2 -0.1 68
2019-04-18 19:00:00 13.9 8 Oeste 16 Sudoeste 0 897 -0.2 63
2019-04-18 18:00:00 14.7 4 Noroeste 17 Oeste 0 896.8 0.2 60
2019-04-18 17:00:00 15.2 9 Sudoeste 31 Sudoeste 0 897.3 0.5 57
2019-04-18 16:00:00 17.5 8 Oeste 42 Sudoeste 0 897.2 -0.7 44
2019-04-18 15:00:00 18.7 22 Sur 50 Este 0 896.6 -2.8 34
2019-04-18 14:00:00 17.5 21 Este 49 Nordeste 0 896.8 -2.9 39
2019-04-18 13:00:00 14.3 19 Nordeste 56 Nordeste 0.2 897.9 -1.2 42
2019-04-18 12:00:00 13.1 15 Sudeste 33 Sudeste 0 899.4 0.6 49
2019-04-18 11:00:00 13.3 13 Sudeste 28 Sur 0 899.7 1.2 54
2019-04-18 10:00:00 11.8 3 Este 8 Oeste 0 899.1 0.6 66
2019-04-18 09:00:00 9.9 6 Norte 18 Norte 0 898.8 0.2 69
2019-04-18 08:00:00 9 12 Norte 18 Nordeste 0 898.5 0 71
2019-04-18 07:00:00 9.3 7 Norte 15 Nordeste 0 898.5 0.6 71
2019-04-18 06:00:00 10.1 9 Norte 13 Nordeste 0 898.6 0.7 67
2019-04-18 05:00:00 10.4 4 Norte 18 Oeste 0 898.5 -0.3 64
2019-04-18 04:00:00 11.2 4 Norte 16 Norte 0 897.9 -0.5 60
2019-04-18 03:00:00 12 18 Norte 24 Nordeste 0 897.9 -0.1 55
2019-04-18 02:00:00 13.4 6 Sudeste 17 Sudoeste 0 898.8 1.3 56
2019-04-18 01:00:00 13.2 10 Norte 20 Norte 0 898.4 1.6 50
2019-04-18 00:00:00 13.1 4 Noroeste 19 Nordeste 0 898 1.6 52
2019-04-17 23:00:00 13.1 3 Norte 23 Nordeste 0 897.5 0.5 55
2019-04-17 22:00:00 13.5 12 Norte 21 Norte 0 896.8 -0.2 52
2019-04-17 21:00:00 15.1 10 Nordeste 21 Sudeste 0 896.4 -0.9 51
2019-04-17 20:00:00 17.4 9 Sudeste 25 Sur 0 897 -0.6 39
2019-04-17 19:00:00 18.5 13 Sudeste 34 Sur 0 897 -0.8 33
2019-04-17 18:00:00 18.9 15 Sudeste 41 Sur 0 897.3 -0.9 31
2019-04-17 17:00:00 19.4 22 Sur 39 Sur 0 897.6 -1.3 30
2019-04-17 16:00:00 19.2 11 Sudeste 33 Sudeste 0 897.8 -1.3 32
2019-04-17 15:00:00 18 17 Sudeste 37 Sudeste 0 898.2 -1.1 40
2019-04-17 14:00:00 17 15 Sudeste 43 Sur 0 898.9 -0.6 43
2019-04-17 13:00:00 16.9 17 Sur 29 Sur 0 899.1 -0.6 42
2019-04-17 12:00:00 14.5 9 Sudeste 26 Sudeste 0 899.3 -0.3 52
2019-04-17 11:00:00 14 12 Sudeste 30 Sur 0 899.5 0 51
2019-04-17 10:00:00 12.9 3 Este 16 Nordeste 0 899.7 0.4 58
2019-04-17 09:00:00 9.5 5 Oeste 17 Norte 0 899.6 -0.6 67
2019-04-17 08:00:00 7 6 Norte 15 Nordeste 0 899.5 -1.2 76
2019-04-17 07:00:00 6.9 4 Este 18 Norte 0 899.3 -1.6 76
2019-04-17 06:00:00 7.9 7 Sudeste 17 Sudeste 0 900.2 -0.8 75
2019-04-17 05:00:00 8 3 Sudoeste 15 Nordeste 0 900.7 -0.6 76
2019-04-17 04:00:00 7.6 8 Nordeste 16 Este 0 900.9 -0.3 75
2019-04-17 03:00:00 8 8 Norte 22 Nordeste 0 901 -0.3 74
2019-04-17 02:00:00 7.6 15 Norte 25 Norte 0 901.3 -0.2 77
2019-04-17 01:00:00 8.9 6 Norte 25 Norte 0 901.2 -0.1 76
2019-04-17 00:00:00 10.3 6 Nordeste 23 Este 0 901.3 0.5 71
2019-04-16 23:00:00 11.2 10 Nordeste 22 Nordeste 0 901.5 1.1 67
2019-04-16 22:00:00 11.9 2 Este 15 Sudoeste 0 901.3 0.8 62
2019-04-16 21:00:00 12.9 5 Sudoeste 24 Sudoeste 0 900.8 0.1 57
2019-04-16 20:00:00 14.1 8 Sudoeste 19 Sur 0 900.4 -0.2 52
2019-04-16 19:00:00 15.1 14 Sur 27 Sur 0 900.5 -0.3 50
2019-04-16 18:00:00 15.7 18 Sur 31 Sur 0 900.7 -0.4 44
2019-04-16 17:00:00 16.2 11 Sudeste 26 Sur 0 900.6 -0.7 41
2019-04-16 16:00:00 15.2 8 Sudoeste 19 Sur 0 900.8 -0.7 45
2019-04-16 15:00:00 14.8 7 Sur 22 Sur 0 901.1 -0.1 50
2019-04-16 14:00:00 14.2 12 Sudeste 24 Sur 0 901.3 0 54
2019-04-16 13:00:00 13.3 9 Sudoeste 18 Sur 0 901.5 0.3 59
2019-04-16 12:00:00 13.2 9 Sudeste 16 Sur 0 901.2 0.5 67
2019-04-16 11:00:00 11.3 6 Este 14 Sudeste 0 901.3 0.8 71
2019-04-16 10:00:00 8.8 4 Sudeste 13 Nordeste 0 901.2 1.4 83
2019-04-16 09:00:00 6.3 4 Nordeste 8 Nordeste 0 900.7 1.1 93
2019-04-16 08:00:00 5.4 3 Sudoeste 9 Sudoeste 0 900.5 1 93
2019-04-16 07:00:00 5.6 4 Nordeste 10 Noroeste 0 899.8 0.8 93
2019-04-16 06:00:00 5.5 4 Oeste 11 Norte 0 899.6 -0.2 93
2019-04-16 05:00:00 5.6 6 Sudoeste 13 Norte 0 899.5 0 92
2019-04-16 04:00:00 6.2 0 Calma 8 Sur 0 899 -0.1 92
2019-04-16 03:00:00 6.6 5 Nordeste 12 Sur 0.6 899.8 1.2 91
2019-04-16 02:00:00 7.2 9 Oeste 19 Noroeste 0.6 899.5 1.1 87
2019-04-16 01:00:00 8.6 4 Norte 19 Noroeste 0.4 899.1 2.4 90
2019-04-16 00:00:00 8.7 6 Norte 37 Norte 1.6 898.6 2.1 88
2019-04-15 23:00:00 9.2 13 Nordeste 23 Norte 5.8 898.4 3.5 87
2019-04-15 22:00:00 11.2 7 Noroeste 30 Nordeste 0.8 896.7 1.8 85
2019-04-15 21:00:00 11.9 8 Noroeste 53 Sudoeste 5.2 896.5 1.5 82
2019-04-15 20:00:00 16.3 9 Este 30 Sur 0 894.9 -0.7 52
2019-04-15 19:00:00 17.6 17 Sur 32 Sur 0 894.9 -1.3 48
2019-04-15 18:00:00 18.4 13 Sudeste 33 Sudeste 0 895 -1.4 45
2019-04-15 17:00:00 19.1 17 Sur 34 Sur 0 895.6 -1.4 42
2019-04-15 16:00:00 18.6 15 Sudeste 35 Sur 0 896.2 -1.3 46
2019-04-15 15:00:00 18.2 15 Sudeste 28 Este 0 896.4 -1.5 45
2019-04-15 14:00:00 18.4 12 Sudeste 25 Sur 0 897 -0.8 44
2019-04-15 13:00:00 18.2 11 Sur 24 Sur 0 897.5 -0.5 41
2019-04-15 12:00:00 17.1 13 Sur 22 Sudeste 0 897.9 -0.2 41
2019-04-15 11:00:00 16.8 6 Sur 15 Sudoeste 0 897.8 -0.6 44
2019-04-15 10:00:00 14.5 2 Nordeste 16 Norte 0 898 -0.3 56
2019-04-15 09:00:00 11.8 8 Norte 19 Norte 0 898.1 -0.3 56
2019-04-15 08:00:00 9.4 13 Nordeste 21 Nordeste 0 898.4 -0.6 62
2019-04-15 07:00:00 8.4 3 Norte 11 Noroeste 0 898.3 -1.1 67
2019-04-15 06:00:00 9.6 6 Norte 20 Nordeste 0 898.4 -1.4 63
2019-04-15 05:00:00 9.4 9 Norte 18 Nordeste 0 899 -1 67
2019-04-15 04:00:00 8.9 7 Norte 16 Nordeste 0 899.4 -0.8 70
2019-04-15 03:00:00 8.9 3 Noroeste 21 Nordeste 0 899.8 -0.1 78
2019-04-15 02:00:00 9.3 11 Norte 17 Nordeste 0 900 0.1 77
2019-04-15 01:00:00 9.3 2 Norte 12 Norte 0 900.2 0.7 76
2019-04-15 00:00:00 9.3 2 Noroeste 14 Nordeste 0 899.9 0.8 74
2019-04-14 23:00:00 10.5 9 Norte 16 Norte 0 899.9 1.1 69
2019-04-14 22:00:00 11.2 10 Norte 14 Norte 0 899.5 0.8 69
2019-04-14 21:00:00 12.6 7 Oeste 19 Noroeste 0 899.1 0.5 66
2019-04-14 20:00:00 14.7 12 Oeste 32 Norte 0 898.8 0.3 58
2019-04-14 19:00:00 16 8 Sur 35 Oeste 0 898.7 0.2 53
2019-04-14 18:00:00 16.9 14 Oeste 40 Sudoeste 0 898.6 0.2 53
2019-04-14 17:00:00 17.8 10 Noroeste 51 Sudoeste 0 898.5 0.1 50
2019-04-14 16:00:00 17.4 13 Noroeste 45 Oeste 0 898.5 0.2 48
2019-04-14 15:00:00 17.8 11 Noroeste 37 Noroeste 0 898.4 0.3 45
2019-04-14 14:00:00 17.1 11 Oeste 42 Noroeste 0 898.4 0 47
2019-04-14 13:00:00 14.7 12 Oeste 31 Sudoeste 0 898.3 -0.1 55
2019-04-14 12:00:00 14 11 Sudoeste 22 Sudoeste 0 898.1 -0.1 55
2019-04-14 11:00:00 12.6 7 Sudeste 13 Este 0 898.4 0.5 51
2019-04-14 10:00:00 12.1 2 Sur 9 Nordeste 0 898.4 0.4 46
2019-04-14 09:00:00 10.5 3 Este 8 Nordeste 0 898.2 0.1 47
2019-04-14 08:00:00 9.1 0 Calma 9 Sudoeste 0 897.9 -0.6 49
2019-04-14 07:00:00 10 3 Este 20 Sudoeste 0 898 -0.8 44
2019-04-14 06:00:00 9.6 6 Sur 13 Sudeste 0 898.1 -1.2 42
2019-04-14 05:00:00 8.8 4 Sudoeste 9 Nordeste 0 898.5 -1.2 39
2019-04-14 04:00:00 8.6 3 Este 6 Sudoeste 0 898.8 -1.1 41
2019-04-14 03:00:00 7.5 3 Nordeste 7 Norte 0 899.3 -1.1 40
2019-04-14 02:00:00 7.8 2 Sur 9 Norte 0 899.7 -0.5 33
2019-04-14 01:00:00 7.8 0 Calma 7 Norte 0 899.9 -0.2 31
2019-04-14 00:00:00 7.5 3 Noroeste 15 Nordeste 0 900.4 0.5 27
2019-04-13 23:00:00 8.9 12 Norte 19 Nordeste 0 900.2 0.7 23
2019-04-13 22:00:00 9.8 12 Norte 21 Norte 0 900.1 0.7 16
2019-04-13 21:00:00 12.1 5 Norte 13 Norte 0 899.9 0.4 16
2019-04-13 20:00:00 14.6 9 Noroeste 26 Norte 0 899.5 0.3 11
2019-04-13 19:00:00 16.9 7 Noroeste 27 Sur 0 899.4 -0.2 9
2019-04-13 18:00:00 16.8 6 Norte 36 Nordeste 0 899.5 -0.4 9
2019-04-13 17:00:00 16.6 20 Nordeste 39 Nordeste 0 899.2 -0.8 8
2019-04-13 16:00:00 17.7 10 Norte 29 Norte 0 899.6 -0.8 6
2019-04-13 15:00:00 17.2 15 Nordeste 28 Norte 0 899.9 -0.7 8
2019-04-13 14:00:00 16.6 13 Nordeste 32 Nordeste 0 900 -0.7 9
2019-04-13 13:00:00 15.9 19 Nordeste 37 Nordeste 0 900.4 -0.1 8
2019-04-13 12:00:00 15.5 7 Sudeste 15 Este 0 900.6 0.3 18
2019-04-13 11:00:00 12 4 Sur 10 Sur 0 900.7 0.5 23
2019-04-13 10:00:00 8.6 3 Nordeste 12 Nordeste 0 900.5 0.8 33
2019-04-13 09:00:00 4.6 3 Norte 10 Nordeste 0 900.3 1 32
2019-04-13 08:00:00 1.9 3 Nordeste 8 Nordeste 0 900.2 0.7 43
2019-04-13 07:00:00 2.2 5 Noroeste 9 Norte 0 899.7 0 41
2019-04-13 06:00:00 2.7 3 Noroeste 9 Nordeste 0 899.3 -0.8 36
2019-04-13 05:00:00 2.1 3 Nordeste 15 Nordeste 0 899.5 -0.6 39
2019-04-13 04:00:00 3.1 3 Noroeste 9 Nordeste 0 899.7 -0.4 32
2019-04-13 03:00:00 3.7 3 Norte 12 Oeste 0 900.1 0.1 30
2019-04-13 02:00:00 3.4 6 Norte 11 Nordeste 0 900.1 0.3 31
2019-04-13 01:00:00 6.3 7 Nordeste 23 Norte 0 900.1 0.8 22
2019-04-13 00:00:00 8.2 14 Nordeste 32 Norte 0 900 1.2 18
2019-04-12 23:00:00 8.8 22 Norte 33 Norte 0 899.8 0.9 21
2019-04-12 22:00:00 8.5 22 Norte -- -- 0 899.3 0.5 28
2019-04-12 21:00:00 9.2 23 Norte 38 Nordeste 0 898.8 0.3 29
2019-04-12 20:00:00 9.6 21 Nordeste 38 Norte 0 898.9 0.3 32
2019-04-12 19:00:00 10.9 19 Norte 42 Nordeste 0 898.8 0 31
2019-04-12 18:00:00 11.4 27 Nordeste 49 Nordeste 0 898.5 -0.3 31
2019-04-12 17:00:00 12 27 Norte 48 Norte 0 898.6 -0.3 26
2019-04-12 16:00:00 13.3 23 Norte 48 Norte 0 898.8 -0.7 17
2019-04-12 15:00:00 13.3 24 Norte 39 Nordeste 0 898.8 -0.5 17
2019-04-12 14:00:00 12.8 19 Nordeste 39 Nordeste 0 898.9 -0.1 19
2019-04-12 13:00:00 11.2 25 Nordeste 44 Nordeste 0 899.5 0.7 28
2019-04-12 12:00:00 9.9 28 Nordeste 47 Nordeste 0 899.3 0.4 35
2019-04-12 11:00:00 9.3 24 Nordeste 44 Norte 0 899 0.3 30
2019-04-12 10:00:00 7.8 28 Nordeste 46 Nordeste 0 898.8 0.5 43
2019-04-12 09:00:00 6.6 18 Nordeste 36 Nordeste 0 898.9 0.4 46
2019-04-12 08:00:00 5.6 17 Nordeste 44 Nordeste 0 898.7 0.2 52
2019-04-12 07:00:00 6.1 19 Nordeste 44 Norte 0 898.3 -0.5 52
2019-04-12 06:00:00 6.5 25 Norte 43 Norte 0 898.5 -1.2 52
2019-04-12 05:00:00 6.7 13 Nordeste 58 Nordeste 0 898.5 -1.6 54
2019-04-12 04:00:00 6.6 18 Nordeste 39 Nordeste 0 898.8 -1.2 54
2019-04-12 03:00:00 5.3 7 Noroeste 18 Noroeste 0 899.7 -0.3 66
2019-04-12 02:00:00 5.1 9 Noroeste 23 Noroeste 0 900.1 0.2 68
2019-04-12 01:00:00 4.7 9 Noroeste 20 Oeste 0 900 0.7 72
2019-04-12 00:00:00 5.2 8 Noroeste 20 Oeste 0 900 1 70
2019-04-11 23:00:00 5.6 7 Noroeste 22 Noroeste 0 899.9 0.9 65
2019-04-11 22:00:00 5.1 11 Sudoeste 21 Oeste 0 899.3 0.4 69
2019-04-11 21:00:00 6.1 13 Sudoeste 21 Oeste 0 899 0.5 66
2019-04-11 20:00:00 7.4 8 Norte 32 Noroeste 0 899 0.5 57
2019-04-11 19:00:00 7.8 12 Norte 39 Nordeste 0 898.9 0.2 53
2019-04-11 18:00:00 7.9 18 Nordeste 30 Norte 0 898.5 -0.1 54
2019-04-11 17:00:00 7.9 17 Nordeste 29 Nordeste 0 898.5 -0.3 57
2019-04-11 16:00:00 8.5 18 Nordeste 33 Nordeste 0 898.7 0 51
2019-04-11 15:00:00 8.9 19 Nordeste 35 Nordeste 0 898.6 0.1 47
2019-04-11 14:00:00 8.9 19 Nordeste 36 Nordeste 0 898.8 0.4 49
2019-04-11 13:00:00 9.4 17 Nordeste 36 Nordeste 0 898.7 0.4 45
2019-04-11 12:00:00 9.2 14 Nordeste 31 Nordeste 0 898.5 0.5 46
2019-04-11 11:00:00 8.7 12 Nordeste 29 Nordeste 0 898.4 0.7 41
2019-04-11 10:00:00 7.6 10 Nordeste 20 Este 0 898.3 0.9 41
2019-04-11 09:00:00 5.2 5 Nordeste 14 Nordeste 0 898 0.5 52
2019-04-11 08:00:00 3.1 3 Oeste 17 Noroeste 0 897.7 0.1 58
2019-04-11 07:00:00 4.5 8 Noroeste 37 Nordeste 0 897.4 -0.1 51
2019-04-11 06:00:00 5 13 Noroeste 39 Nordeste 0 897.5 -0.1 55
2019-04-11 05:00:00 4.8 8 Noroeste 30 Nordeste 0 897.6 -0.2 57
2019-04-11 04:00:00 5.2 13 Norte 44 Nordeste 0 897.5 -0.2 52
2019-04-11 03:00:00 5.6 14 Norte 43 Norte 0 897.6 0 54
2019-04-11 02:00:00 5.8 15 Norte 35 Nordeste 0 897.8 0.3 49
2019-04-11 01:00:00 5.9 18 Norte 46 Norte 0 897.7 1 52
2019-04-11 00:00:00 6.2 21 Norte 45 Norte 0 897.6 1.9 54
2019-04-10 23:00:00 6.1 4 Noroeste 19 Sudoeste 0 897.5 2.2 62
2019-04-10 22:00:00 6.5 8 Norte 17 Nordeste 0 896.7 2.2 59
2019-04-10 21:00:00 7.4 5 Nordeste 27 Norte 0 895.7 1.2 54
2019-04-10 20:00:00 7.8 21 Norte 49 Nordeste 0 895.3 1.3 50
2019-04-10 19:00:00 8.6 26 Nordeste 51 Nordeste 0 894.5 0.4 49
2019-04-10 18:00:00 9.7 23 Norte 50 Nordeste 0 894.5 0.7 36
2019-04-10 17:00:00 10.8 22 Nordeste 46 Nordeste 0 894 0.1 38
2019-04-10 16:00:00 10.6 28 Norte 51 Norte 0 894.1 0.1 36
2019-04-10 15:00:00 10.8 25 Nordeste 42 Nordeste 0 893.8 -0.1 42
2019-04-10 14:00:00 10.6 26 Nordeste 48 Nordeste 0 893.9 0.5 38
2019-04-10 13:00:00 11 19 Nordeste 46 Nordeste 0 894 0.7 38
2019-04-10 12:00:00 10.1 26 Nordeste 45 Nordeste 0 893.9 0.8 41
2019-04-10 11:00:00 9.2 27 Nordeste 46 Nordeste 0 893.4 0.7 47
2019-04-10 10:00:00 5.7 5 Sur 12 Nordeste 0 893.3 0.7 75
2019-04-10 09:00:00 2.5 3 Este 12 Nordeste 0 893.1 0.5 93
2019-04-10 08:00:00 1 4 Noroeste 13 Norte 0 892.7 0 92
2019-04-10 07:00:00 1.2 3 Norte 11 Norte 0 892.6 -0.1 91
2019-04-10 06:00:00 1.6 5 Norte 8 Norte 0 892.6 -0.3 91
2019-04-10 05:00:00 2 4 Nordeste 8 Norte 0 892.7 -0.4 91
2019-04-10 04:00:00 2.5 4 Nordeste 8 Nordeste 0 892.7 -0.5 90
2019-04-10 03:00:00 3.2 2 Sur 7 Nordeste 0 892.9 -0.2 88
2019-04-10 02:00:00 3.6 3 Norte 6 Norte 0 893.1 -0.3 87
2019-04-10 01:00:00 3.7 3 Noroeste 8 Norte 0 893.2 0.3 86
2019-04-10 00:00:00 3.9 3 Norte 9 Norte 0 893.1 1.1 85
2019-04-09 23:00:00 4.6 2 Oeste 13 Sudoeste 0 893.4 1.8 81
2019-04-09 22:00:00 6.2 3 Noroeste 8 Nordeste 0 892.9 1.5 74
2019-04-09 21:00:00 7.3 2 Nordeste 10 Norte 0 892 0.6 74
2019-04-09 20:00:00 8.4 4 Nordeste 17 Noroeste 0 891.6 -0.1 69
2019-04-09 19:00:00 9.1 10 Oeste 28 Sudoeste 0 891.4 -0.6 60
2019-04-09 18:00:00 10.2 5 Sudoeste 18 Norte 0 891.4 -0.9 54
2019-04-09 17:00:00 9.3 13 Nordeste 35 Sudoeste 0.4 891.7 -0.9 56
2019-04-09 16:00:00 11.8 9 Sur 31 Sudoeste 0 892 -0.9 43
2019-04-09 15:00:00 12.1 13 Sudoeste 32 Sudoeste 0 892.3 -1.1 43
2019-04-09 14:00:00 12.1 9 Sudoeste 31 Sudoeste 0 892.6 -1 38
2019-04-09 13:00:00 10.9 14 Sudoeste 28 Sudoeste 0 892.9 -1 49
2019-04-09 12:00:00 10 12 Sudoeste 30 Sudoeste 0 893.4 -0.4 53
2019-04-09 11:00:00 8.7 9 Sudoeste 26 Sudoeste 0 893.6 0.3 58
2019-04-09 10:00:00 6.8 5 Sur 10 Sur 0 893.9 0.7 73
2019-04-09 09:00:00 3.9 3 Sudoeste 13 Norte 0 893.8 0.4 86
2019-04-09 08:00:00 2.7 3 Norte 8 Nordeste 0 893.3 -0.2 86
2019-04-09 07:00:00 3.1 5 Norte 12 Norte 0 893.2 -0.5 83
2019-04-09 06:00:00 2.8 5 Nordeste 12 Nordeste 0 893.4 -0.4 86
2019-04-09 05:00:00 3.4 4 Nordeste 13 Norte 0 893.5 -0.4 83
2019-04-09 04:00:00 3.7 4 Norte 14 Nordeste 0 893.7 -0.3 83
2019-04-09 03:00:00 4.4 3 Nordeste 14 Norte 0 893.8 -0.4 82
2019-04-09 02:00:00 4.6 4 Norte 10 Norte 0 893.9 -0.2 85
2019-04-09 01:00:00 5 5 Noroeste 11 Nordeste 0 894 0 84
2019-04-09 00:00:00 4.9 5 Norte 19 Nordeste 0 894.2 0.4 82
2019-04-08 23:00:00 4.8 16 Norte 22 Norte 0 894.1 0.3 81
2019-04-08 22:00:00 5.6 13 Norte -- -- 0 894 0.4 82
2019-04-08 21:00:00 7.7 5 Norte 11 Noroeste 0 893.8 -0.1 76
2019-04-08 20:00:00 9.7 5 Sudoeste 15 Oeste 0 893.8 -0.3 65
2019-04-08 19:00:00 10.8 8 Sudoeste 20 Sudoeste 0 893.6 -0.9 61
2019-04-08 18:00:00 11.4 8 Sudoeste 20 Oeste 0 893.9 -0.8 63
2019-04-08 17:00:00 10.8 5 Sur 16 Oeste 0 894.1 -0.7 71
2019-04-08 16:00:00 9 6 Sudoeste 17 Sudoeste 0.6 894.5 -0.2 85
2019-04-08 15:00:00 9 8 Sur 18 Sur 0 894.7 -0.1 74
2019-04-08 14:00:00 7.8 4 Sur 11 Sudoeste 0.2 894.8 -0.1 83
2019-04-08 13:00:00 7.1 5 Sur 8 Sur 0.2 894.7 0.1 81
2019-04-08 12:00:00 6.3 3 Sudeste 8 Sur 0.2 894.8 0.3 80
2019-04-08 11:00:00 5.3 5 Sudoeste 8 Sur 0 894.9 0.8 79
2019-04-08 10:00:00 4.6 3 Nordeste 13 Nordeste 0 894.6 0.5 83
2019-04-08 09:00:00 3.9 7 Nordeste 19 Norte 0 894.5 0.1 86
2019-04-08 08:00:00 3.7 13 Norte 18 Norte 0 894.1 -0.2 84
2019-04-08 07:00:00 3.5 13 Nordeste 21 Nordeste 0 894.1 -0.2 87
2019-04-08 06:00:00 4 11 Nordeste 15 Nordeste 0 894.4 -0.1 81
2019-04-08 05:00:00 4.1 0 Calma 12 Nordeste 0 894.3 -0.5 73
2019-04-08 04:00:00 4 6 Norte 19 Nordeste 0 894.3 -0.6 69
2019-04-08 03:00:00 3.5 8 Norte 20 Norte 0 894.5 -0.5 70
2019-04-08 02:00:00 3.9 12 Norte 20 Nordeste 0 894.8 -0.3 71
2019-04-08 01:00:00 3.2 13 Nordeste 22 Norte 0 894.9 -0.1 73
2019-04-08 00:00:00 3 15 Norte 19 Nordeste 0 895 0.5 77
2019-04-07 23:00:00 3.5 9 Norte 18 Nordeste 0 895.1 1.5 79
2019-04-07 22:00:00 4.2 11 Nordeste 18 Nordeste 0 895 2 80
2019-04-07 21:00:00 5.9 4 Noroeste 18 Noroeste 0 894.5 2.2 68
2019-04-07 20:00:00 6.9 8 Oeste 25 Sudoeste 0 893.6 1.4 64
2019-04-07 19:00:00 8.3 13 Sudoeste 34 Oeste 0 893 1.1 59
2019-04-07 18:00:00 10.1 14 Sudoeste 31 Sudoeste 0 892.3 0.7 52
2019-04-07 17:00:00 9.5 9 Sudoeste 34 Sudoeste 0 892.2 0.8 59
2019-04-07 16:00:00 9.5 13 Sudoeste 32 Oeste 0 891.9 0.9 63
2019-04-07 15:00:00 9.4 11 Oeste 36 Sudoeste 0 891.6 1.1 56
2019-04-07 14:00:00 6.6 12 Sudoeste 30 Sudoeste 0 891.4 1.4 69
2019-04-07 13:00:00 7 8 Sudoeste 21 Sudoeste 0 891 1.7 69
2019-04-07 12:00:00 5.3 5 Sudoeste 26 Sudoeste 0 890.5 1.9 79
2019-04-07 11:00:00 4.2 5 Nordeste 12 Nordeste 0 890 2.1 86
2019-04-07 10:00:00 2.8 -- -- -- -- 0 889.3 2 93
2019-04-07 09:00:00 0.8 3 Norte 7 Oeste 0.2 888.6 1.9 95
2019-04-07 08:00:00 0.4 3 Nordeste -- -- 0 887.9 1.4 96
2019-04-07 07:00:00 0.2 0 Calma 8 Oeste 0.2 887.3 1 95
2019-04-07 06:00:00 0.4 4 Noroeste 10 Sudoeste 0.8 886.7 0.7 95
2019-04-07 05:00:00 0.6 2 Nordeste 10 Norte 1.6 886.5 0.6 94
2019-04-07 04:00:00 0.6 9 Norte 23 Sudoeste 2.4 886.3 0.5 94
2019-04-07 03:00:00 2.3 0 Calma 6 Nordeste 0 886 0.3 91
2019-04-07 02:00:00 2.1 3 Noroeste 9 Norte 0 885.9 0.1 91
2019-04-07 01:00:00 1.9 7 Norte 11 Norte 0 885.8 0.9 92
2019-04-07 00:00:00 2.1 3 Nordeste 13 Oeste 0.6 885.7 1.1 89
2019-04-06 23:00:00 1.3 4 Sudoeste 23 Sur 1.6 885.8 1.3 91
2019-04-06 22:00:00 2.7 8 Nordeste 17 Norte 0 884.9 1 89
2019-04-06 21:00:00 3.2 8 Nordeste 13 Nordeste 0 884.6 0.7 86
2019-04-06 20:00:00 3.7 3 Norte 16 Sur 0.2 884.5 0.5 83
2019-04-06 19:00:00 4.4 8 Nordeste 19 Nordeste 0 883.9 0.2 81
2019-04-06 18:00:00 3.5 7 Nordeste -- -- 0.2 883.9 -0.2 88
2019-04-06 17:00:00 2.4 9 Norte 31 Sur 2 884 -0.1 90
2019-04-06 16:00:00 4.5 6 Este 15 Nordeste 0.2 883.7 -0.3 74
2019-04-06 15:00:00 3.9 6 Norte 10 Norte 0 884.1 0.4 79
2019-04-06 14:00:00 3.1 0 Calma 9 Este 0 884.1 0.8 81
2019-04-06 13:00:00 2.8 4 Oeste 13 Nordeste 0 884 1.3 83
2019-04-06 12:00:00 2.9 3 Este 8 Nordeste 0 883.7 1.3 85
2019-04-06 11:00:00 0.9 0 Calma 4 Sudeste 0.4 883.3 1.5 95
2019-04-06 10:00:00 0.4 2 Sur 8 Oeste 1 882.7 1.3 95
2019-04-06 09:00:00 0.3 4 Este 9 Sudoeste 0.6 882.4 1.3 95
2019-04-06 08:00:00 0.2 4 Este 7 Este 1 881.8 0.8 95
2019-04-06 07:00:00 0.3 4 Sur 11 Oeste 0.6 881.4 0.3 95
2019-04-06 06:00:00 0.4 6 Sudoeste 16 Sudoeste 0.4 881.1 -0.2 95
2019-04-06 05:00:00 0.2 6 Sur 13 Sudoeste 1 881 -0.4 95
2019-04-06 04:00:00 0.2 3 Sur 6 Sudoeste 1 881.1 -0.4 94
2019-04-06 03:00:00 0.3 2 Sur 13 Sudoeste 2 881.3 -0.3 94
2019-04-06 02:00:00 1.3 7 Sudoeste 19 Sudoeste 1 881.4 -0.6 91
2019-04-06 01:00:00 2.4 8 Oeste 21 Noroeste 0.6 881.5 0 92
2019-04-06 00:00:00 2.8 0 Calma 6 Noroeste 0.4 881.6 -0.3 92
2019-04-05 23:00:00 2.8 2 Sudoeste 28 Nordeste 0 882 -0.4 91
2019-04-05 22:00:00 2.9 13 Norte 24 Nordeste 1 881.5 -1.2 89
2019-04-05 21:00:00 2.4 6 Nordeste 12 Nordeste 1.4 881.9 -1 92
2019-04-05 20:00:00 2.9 6 Nordeste 12 Norte 0.8 882.4 0.1 91
2019-04-05 19:00:00 3.8 4 Sudeste 14 Sur 0.6 882.7 -1.1 85
2019-04-05 18:00:00 4.6 9 Sudoeste 24 Nordeste 0 882.9 -0.9 85
2019-04-05 17:00:00 4.4 14 Norte 27 Norte 0.6 882.3 -1.5 84
2019-04-05 16:00:00 3.7 9 Sudeste 23 Sudeste 0.8 883.8 -0.2 85
2019-04-05 15:00:00 4.3 13 Sudeste 26 Sudeste 0.2 883.8 -0.4 82
2019-04-05 14:00:00 4.6 11 Este 27 Sudeste 0 883.8 -0.4 79
2019-04-05 13:00:00 4.7 15 Sudeste 34 Sudeste 0 884 0 79
2019-04-05 12:00:00 3 6 Sur 15 Sur 0.2 884.2 0.1 88
2019-04-05 11:00:00 2.3 6 Sur 19 Sur 0.2 884.2 -0.1 89
2019-04-05 10:00:00 2 9 Sur 21 Sudeste 0.2 884 0.1 86
2019-04-05 09:00:00 1.8 7 Sudeste 25 Sudeste 0 884.1 0.6 86
2019-04-05 08:00:00 1.7 13 Sudeste 40 Nordeste 0 884.3 1 83
2019-04-05 07:00:00 4.6 17 Sudeste 41 Sudeste 0 883.9 -0.3 51
2019-04-05 06:00:00 5.3 12 Sudeste 27 Sudeste 0 883.5 -1 41
2019-04-05 05:00:00 5.6 13 Este 40 Nordeste 0 883.3 -1.1 40
2019-04-05 04:00:00 5.3 15 Este 32 Sudeste 0 884.2 -0.6 42
2019-04-05 03:00:00 5.5 13 Sudeste 26 Sudeste 0 884.5 -0.5 40
2019-04-05 02:00:00 5.3 6 Sudeste 21 Este 0 884.4 -0.8 41
2019-04-05 01:00:00 4.6 2 Noroeste 9 Noroeste 0 884.8 -0.5 48
2019-04-05 00:00:00 4.4 6 Norte 12 Nordeste 0 885 -0.3 52
2019-04-04 23:00:00 4.8 5 Norte 17 Nordeste 0 885.2 0 48
2019-04-04 22:00:00 4.6 11 Nordeste 21 Norte 0 885.3 -0.1 50
2019-04-04 21:00:00 5 13 Norte 19 Nordeste 0 885.3 0.1 49
2019-04-04 20:00:00 6.2 6 Este 14 Sur 0 885.2 0.1 40
2019-04-04 19:00:00 7 12 Sur 25 Sur 0 885.4 -0.3 37
2019-04-04 18:00:00 8.1 12 Sur 24 Sudoeste 0 885.2 -0.6 38
2019-04-04 17:00:00 8.2 10 Sudeste 27 Sudoeste 0 885.1 -0.9 36
2019-04-04 16:00:00 7.2 15 Sudoeste 30 Sudoeste 0 885.7 -0.6 45
2019-04-04 15:00:00 7.1 12 Sudoeste 31 Sudoeste 0 885.8 -0.5 46
2019-04-04 14:00:00 6 12 Sudoeste 30 Sudoeste 0 886 -0.2 50
2019-04-04 13:00:00 5.2 13 Sudoeste 30 Sudoeste 0 886.3 0.3 50
2019-04-04 12:00:00 2.7 12 Sudoeste 26 Sudoeste 0 886.3 0.7 63
2019-04-04 11:00:00 1.6 7 Sur 21 Sudoeste 0 886.2 1 75
2019-04-04 10:00:00 -0.2 9 Sur 17 Sudoeste 0 886 1.5 78
2019-04-04 09:00:00 -1.7 2 Noroeste 17 Oeste 0 885.6 1 86
2019-04-04 08:00:00 -2.2 6 Oeste 19 Oeste 0 885.2 0.5 87
2019-04-04 07:00:00 -1.9 12 Noroeste 17 Noroeste 0 884.5 -1 85
2019-04-04 06:00:00 -1.7 9 Oeste 23 Oeste 0 884.6 -1.1 85
2019-04-04 05:00:00 -1.6 7 Oeste 16 Noroeste 0 884.7 -1.5 86
2019-04-04 04:00:00 -1.5 5 Sudoeste 19 Noroeste 0 885.5 -0.9 88
2019-04-04 03:00:00 -1.3 9 Noroeste 23 Noroeste 0 885.7 -1.2 84
2019-04-04 02:00:00 -1 4 Oeste 16 Noroeste 0 886.2 -0.7 79
2019-04-04 01:00:00 -0.7 6 Noroeste 14 Oeste 0 886.4 -0.3 77
2019-04-04 00:00:00 -0.1 7 Noroeste 17 Noroeste 0 886.9 0.3 78
2019-04-03 23:00:00 0.5 6 Oeste 21 Noroeste 0 886.9 0.4 71
2019-04-03 22:00:00 0.7 4 Noroeste 18 Noroeste 0 886.7 0.3 75
2019-04-03 21:00:00 1.5 7 Oeste 21 Noroeste 0 886.6 -0.5 70
2019-04-03 20:00:00 2.4 8 Oeste 28 Noroeste 0 886.5 -0.1 61
2019-04-03 19:00:00 2.9 11 Oeste 27 Sudoeste 0 886.4 -1 76
2019-04-03 18:00:00 2.3 6 Noroeste 39 Oeste 0.2 887.1 -0.7 81
2019-04-03 17:00:00 5.8 7 Sudoeste 29 Oeste 0 886.6 -1.7 62
2019-04-03 16:00:00 4.4 9 Sudoeste 29 Oeste 0.6 887.4 -1.6 88
2019-04-03 15:00:00 5.1 12 Sudoeste 26 Sudoeste 0 887.8 -1.8 75
2019-04-03 14:00:00 5.6 13 Sudoeste 22 Sudoeste 0 888.3 -1.6 75
2019-04-03 13:00:00 3.5 6 Oeste 24 Oeste 0.4 889 -1 86
2019-04-03 12:00:00 3 10 Sudoeste 21 Sudoeste 0.4 889.6 -0.8 88
2019-04-03 11:00:00 2.9 7 Sudoeste 18 Sudoeste 0.4 889.9 -0.8 89
2019-04-03 10:00:00 3 4 Oeste 11 Sudoeste 0 890 -0.9 90
2019-04-03 09:00:00 2.9 7 Sudoeste 15 Noroeste 0.2 890.4 -1 90
2019-04-03 08:00:00 3.4 6 Noroeste 19 Oeste 0 890.7 -1.4 91
2019-04-03 07:00:00 3.6 3 Sur 10 Sudoeste 1.6 890.9 -1.8 89
2019-04-03 06:00:00 4.2 6 Sudoeste 10 Sudoeste 1.4 891.4 -2.2 92
2019-04-03 05:00:00 4.6 7 Oeste 19 Noroeste 0.4 892.1 -2.2 90
2019-04-03 04:00:00 5.1 6 Noroeste 15 Oeste 0 892.7 -2.3 87
2019-04-03 03:00:00 5.6 0 Calma 15 Noroeste 0 893.6 -1.8 80
2019-04-03 02:00:00 5.8 2 Oeste 9 Norte 0 894.3 -1.2 74
2019-04-03 01:00:00 5.7 5 Noroeste 8 Oeste 0 895 -0.4 73
2019-04-03 00:00:00 6 2 Norte 15 Nordeste 0 895.4 0.4 69
2019-04-02 23:00:00 5.9 12 Nordeste 17 Nordeste 0 895.5 0.5 65
2019-04-02 22:00:00 6.5 5 Norte 11 Noroeste 0 895.4 0.6 63
2019-04-02 21:00:00 9.3 6 Oeste 28 Sudoeste 0 895 0 50
2019-04-02 20:00:00 11.1 11 Oeste 31 Sudoeste 0 895 -0.5 42
2019-04-02 19:00:00 13.2 16 Sudoeste 42 Sudoeste 0 894.8 -1.1 35
2019-04-02 18:00:00 14.4 13 Sudoeste 33 Sudoeste 0 895 -1.4 31
2019-04-02 17:00:00 14.8 15 Sudoeste 33 Sudoeste 0 895.5 -1.5 29
2019-04-02 16:00:00 14.1 10 Noroeste 38 Sudoeste 0 895.9 -1.6 36
2019-04-02 15:00:00 12.8 18 Sudoeste 39 Sudoeste 0 896.4 -1.5 48
2019-04-02 14:00:00 13.6 15 Sudoeste 27 Sudoeste 0 897 -0.7 47
2019-04-02 13:00:00 12 6 Sudoeste 21 Sudoeste 0 897.5 -0.4 61
2019-04-02 12:00:00 10.7 4 Oeste 21 Sudoeste 0 897.9 0 68
2019-04-02 11:00:00 10.6 9 Sudoeste 17 Sudoeste 0 897.7 0.2 76
2019-04-02 10:00:00 8.2 7 Nordeste 13 Nordeste 0 897.9 0.4 84
2019-04-02 09:00:00 5.8 3 Nordeste 9 Oeste 0 897.9 0.6 91
2019-04-02 08:00:00 5.7 0 Calma 9 Norte 0 897.5 -0.3 92
2019-04-02 07:00:00 6 4 Norte 11 Norte 0 897.5 -0.6 92
2019-04-02 06:00:00 6 7 Norte 13 Norte 0 897.3 -1.1 89
2019-04-02 05:00:00 6.6 3 Norte 11 Nordeste 0 897.8 -0.6 91
2019-04-02 04:00:00 6.6 7 Nordeste 15 Norte 0 898.1 -0.5 90
2019-04-02 03:00:00 6.8 8 Norte 12 Norte 1.2 898.4 -0.1 88
2019-04-02 02:00:00 7.6 4 Nordeste 12 Norte 0 898.4 0 89
2019-04-02 01:00:00 7.8 4 Nordeste 11 Norte 0 898.6 0.5 88
2019-04-02 00:00:00 8.1 4 Norte 14 Nordeste 0 898.5 0.8 85
2019-04-01 23:00:00 8.1 6 Nordeste 10 Norte 0 898.4 1 86
2019-04-01 22:00:00 8.6 2 Norte 17 Nordeste 0 898.1 0.7 83
2019-04-01 21:00:00 8.9 9 Nordeste 13 Norte 0 897.7 0.2 86
2019-04-01 20:00:00 9.5 5 Nordeste 7 Nordeste 0 897.4 0 82
2019-04-01 19:00:00 9.9 3 Noroeste 13 Sur 0 897.4 -0.2 76
2019-04-01 18:00:00 9.8 7 Sur 15 Este 0 897.5 -0.5 76
2019-04-01 17:00:00 9.9 9 Sudeste 22 Este 0 897.4 -1 73
2019-04-01 16:00:00 10.1 12 Sudeste 20 Sudeste 0 897.6 -0.9 72
2019-04-01 15:00:00 10.2 8 Sudeste 24 Sur 0 898 -0.4 72
2019-04-01 14:00:00 9.5 10 Sudeste 17 Sudeste 0.2 898.4 0.3 75
2019-04-01 13:00:00 9 4 Sudeste 13 Sur 0.2 898.5 0.7 80
2019-04-01 12:00:00 8.1 5 Norte 15 Norte 0.2 898.4 0.8 80
2019-04-01 11:00:00 7 3 Nordeste 8 Norte 0.6 898.1 0.9 92
2019-04-01 10:00:00 5.5 3 Nordeste 5 Nordeste 0.6 897.8 0.7 92
2019-04-01 09:00:00 5.3 2 Sur 3 Sur 0.2 897.6 0.6 91
2019-04-01 08:00:00 5.4 0 Calma 4 Norte 0.2 897.2 0 90
2019-04-01 07:00:00 5.5 2 Este 5 Oeste 0 897.1 -0.4 86
2019-04-01 06:00:00 5.9 2 Sur 6 Oeste 0 897 -0.6 82
2019-04-01 05:00:00 6.4 4 Oeste 7 Nordeste 0 897.2 -0.8 79
2019-04-01 04:00:00 6.3 2 Sudoeste 5 Sur 0 897.5 -0.7 79
2019-04-01 03:00:00 6.9 3 Noroeste 5 Noroeste 0 897.6 -0.6 77
2019-04-01 02:00:00 7.2 0 Calma 3 Sudoeste 0 898 -0.2 73
2019-04-01 01:00:00 7.6 0 Calma 4 Norte 0 898.2 0.4 71
2019-04-01 00:00:00 8.1 0 Calma 9 Oeste 0 898.2 1 68
2019-03-31 23:00:00 8.5 6 Oeste 9 Oeste 0 898.2 1.1 64
2019-03-31 22:00:00 9 4 Norte 9 Noroeste 0 897.8 0.9 66
2019-03-31 21:00:00 10 2 Noroeste 12 Sudoeste 0 897.2 0.5 63
2019-03-31 20:00:00 11.3 8 Sudoeste 17 Sudoeste 0 897.1 0 57
2019-03-31 19:00:00 12.9 8 Sudoeste 20 Sudoeste 0 896.9 -0.8 49
2019-03-31 18:00:00 14.1 12 Sudoeste 23 Sur 0 896.7 -1.5 39
2019-03-31 17:00:00 14.9 5 Este 24 Sudoeste 0 897.1 -1.2 35
2019-03-31 16:00:00 13.5 13 Sudoeste 23 Sudoeste 0 897.7 -1.1 40
2019-03-31 15:00:00 14.4 16 Sur 26 Sur 0 898.2 -1.1 30
2019-03-31 14:00:00 14.8 13 Sudeste 21 Sudeste 0 898.3 -0.9 30
2019-03-31 13:00:00 14.9 5 Oeste 19 Sudeste 0 898.8 0.1 38
2019-03-31 12:00:00 13.4 8 Sudeste 15 Sudeste 0 899.3 0.5 41
2019-03-31 11:00:00 10 5 Sur 9 Sudeste 0 899.2 0.4 50
2019-03-31 10:00:00 6.9 7 Nordeste 16 Nordeste 0 898.7 -0.7 62
2019-03-31 09:00:00 3.9 3 Norte 16 Nordeste 0 898.8 -1.2 71
2019-03-31 08:00:00 3.7 7 Norte 19 Nordeste 0 898.8 -1.6 70
2019-03-31 07:00:00 4.2 10 Norte 20 Norte 0 899.4 -1.3 68
2019-03-31 06:00:00 4.1 9 Nordeste 21 Nordeste 0 900 -1.3 68
2019-03-31 05:00:00 4.9 12 Nordeste 21 Nordeste 0 900.4 -1.4 65
2019-03-31 03:00:00 5.4 9 Norte 19 Nordeste 0 901.3 -1.2 64
2019-03-31 01:00:00 6.3 11 Norte 16 Norte 0 901.8 -0.5 60
2019-03-31 00:00:00 7.3 9 Norte 18 Norte 0 902.5 0.9 55
2019-03-30 23:00:00 6.9 14 Norte 21 Nordeste 0 902.5 1.3 56
2019-03-30 22:00:00 7.7 14 Norte 21 Nordeste 0 902.3 1.5 52
2019-03-30 21:00:00 8.8 9 Norte 14 Norte 0 901.6 1 49
2019-03-30 20:00:00 10.5 4 Oeste 19 Sur 0 901.2 0.3 42
2019-03-30 19:00:00 12.6 11 Sur 22 Sudoeste 0 900.8 -0.7 36
2019-03-30 18:00:00 14.4 15 Sur 25 Sudoeste 0 900.6 -1.3 30
2019-03-30 17:00:00 15.8 11 Sur 23 Sur 0 900.9 -1.5 28
2019-03-30 16:00:00 14.2 12 Sudoeste 32 Sur 0 901.5 -1.6 30
2019-03-30 15:00:00 15.6 11 Sur 28 Sur 0 901.9 -1.9 29
2019-03-30 14:00:00 15.3 10 Sudoeste 27 Sudoeste 0 902.4 -1.8 29
2019-03-30 13:00:00 14.1 10 Este 17 Sur 0 903.1 -1.3 31
2019-03-30 12:00:00 13.6 8 Sur 19 Sudeste 0 903.8 -0.7 30
2019-03-30 11:00:00 12.5 10 Sur 19 Sur 0 904.2 -0.3 36
2019-03-30 10:00:00 10.7 7 Sur 15 Sur 0 904.4 -0.2 48
2019-03-30 09:00:00 7.2 7 Nordeste 22 Nordeste 0 904.5 -0.1 59
2019-03-30 08:00:00 4.2 17 Norte 22 Nordeste 0 904.5 -0.5 67
2019-03-30 07:00:00 4.1 13 Norte 17 Nordeste 0 904.6 -0.7 68
2019-03-30 06:00:00 3.4 7 Norte 18 Norte 0 904.6 -1.2 71
2019-03-30 05:00:00 3.9 10 Norte 24 Norte 0 905 -1 69
2019-03-30 04:00:00 4.4 11 Nordeste 24 Nordeste 0 905.3 -0.8 67
2019-03-30 03:00:00 4.7 14 Norte 24 Nordeste 0 905.8 -0.4 65
2019-03-30 02:00:00 4.6 13 Norte 22 Nordeste 0 906 -0.1 64
2019-03-30 01:00:00 5.7 14 Norte 21 Norte 0 906.1 0 60
2019-03-30 00:00:00 6.1 13 Nordeste 20 Norte 0 906.2 0.2 58
2019-03-29 23:00:00 7.6 6 Norte 17 Nordeste 0 906.1 0.6 51
2019-03-29 22:00:00 8.4 11 Nordeste 21 Norte 0 906.1 0.9 48
2019-03-29 21:00:00 8.2 12 Nordeste 20 Nordeste 0 906 0.9 51
2019-03-29 20:00:00 10.3 4 Este 19 Sur 0 905.5 0.2 42
2019-03-29 19:00:00 11.5 -- -- -- -- 0 905.2 -0.5 36
2019-03-29 18:00:00 12 11 Sudeste 27 Sudeste 0 905.1 -1.2 36
2019-03-29 17:00:00 12.8 13 Sudeste 28 Este 0 905.3 -1.5 33
2019-03-29 16:00:00 14.8 16 Sur 33 Sur 0 905.7 -1.5 29
2019-03-29 15:00:00 13.4 19 Sur 35 Sur 0 906.3 -1.5 31
2019-03-29 14:00:00 14.4 19 Sur 36 Sur 0 906.8 -1.2 29
2019-03-29 13:00:00 13.2 11 Sudeste 32 Sur 0 907.2 -0.7 32
2019-03-29 12:00:00 13.1 18 Sudeste 38 Sur 0 907.8 0 34
2019-03-29 11:00:00 12.2 19 Sur 31 Sur 0 908 0 39
2019-03-29 10:00:00 11 10 Sudeste 22 Sudeste 0 907.9 0.1 44
2019-03-29 09:00:00 8.2 6 Nordeste 15 Norte 0 907.8 0.2 59
2019-03-29 08:00:00 6.3 9 Norte 15 Norte 0 908 0.5 61
2019-03-29 07:00:00 5.1 10 Norte 18 Norte 0 907.8 0.3 65
2019-03-29 06:00:00 5.2 15 Norte 19 Norte 0 907.6 0 68
2019-03-29 05:00:00 5.4 9 Norte 19 Nordeste 0 907.5 -0.1 68
2019-03-29 04:00:00 5.9 12 Norte 20 Norte 0 907.5 -0.2 66
2019-03-29 03:00:00 5.5 8 Norte 20 Norte 0 907.6 -0.2 67
2019-03-29 02:00:00 6 14 Norte 21 Nordeste 0 907.6 -0.3 66
2019-03-29 01:00:00 6.5 12 Nordeste 20 Nordeste 0 907.7 0.1 64
2019-03-29 00:00:00 6.8 14 Nordeste 20 Norte 0 907.8 0.8 63
2019-03-28 23:00:00 7.4 9 Norte 17 Norte 0 907.9 1.3 60
2019-03-28 22:00:00 8.1 8 Norte 17 Norte 0 907.6 1.5 57
2019-03-28 21:00:00 8.9 10 Norte 17 Norte 0 907 1.1 55
2019-03-28 20:00:00 10.9 9 Norte 15 Norte 0 906.6 0.7 49
2019-03-28 19:00:00 13.3 8 Sudoeste 25 Sudoeste 0 906.1 0 40
2019-03-28 18:00:00 15.5 8 Sudoeste 29 Sudoeste 0 905.9 -0.7 33
2019-03-28 17:00:00 16.3 13 Sur 28 Sur 0 905.9 -1.3 33
2019-03-28 16:00:00 17.1 12 Sudoeste 25 Sudoeste 0 906.1 -1.5 27
2019-03-28 15:00:00 16.3 12 Sudoeste 26 Sudoeste 0 906.6 -1.6 27
2019-03-28 14:00:00 15.8 12 Sudoeste 24 Sudoeste 0 907.2 -1.3 26
2019-03-28 13:00:00 15.4 8 Sur 19 Sudoeste 0 907.6 -1.1 27
2019-03-28 12:00:00 13.5 9 Sudoeste 23 Sudoeste 0 908.2 -0.4 28
2019-03-28 11:00:00 12.7 8 Sur 17 Sur 0 908.5 -0.1 30
2019-03-28 10:00:00 10.4 5 Sudeste 11 Nordeste 0 908.7 0.5 34
2019-03-28 09:00:00 6.5 9 Nordeste 14 Norte 0 908.6 0.5 45
2019-03-28 08:00:00 2.2 3 Norte -- -- 0 908.6 0.8 54
2019-03-28 07:00:00 2.3 4 Noroeste 11 Norte 0 908.2 0.3 52
2019-03-28 06:00:00 2.8 5 Nordeste 17 Nordeste 0 908.1 0.3 49
2019-03-28 05:00:00 2.6 4 Norte 17 Nordeste 0 907.8 0.2 50
2019-03-28 04:00:00 3.4 3 Noroeste 10 Nordeste 0 907.9 0.4 44
2019-03-28 03:00:00 3.3 2 Sur 9 Norte 0 907.8 0.3 45
2019-03-28 02:00:00 3.2 3 Norte 13 Norte 0 907.6 0.6 47
2019-03-28 01:00:00 4.2 4 Nordeste 14 Nordeste 0 907.5 0.9 45
2019-03-28 00:00:00 4.7 2 Oeste 6 Nordeste 0 907.5 1.4 48
2019-03-27 23:00:00 5.9 3 Sudoeste 10 Sur 0 907 1.9 44
2019-03-27 22:00:00 7.2 5 Sur 39 Nordeste 0 906.6 2 37
2019-03-27 21:00:00 9.7 19 Nordeste 58 Norte 0 906.1 1.8 29
2019-03-27 20:00:00 9.6 28 Nordeste 51 Nordeste 0 905.1 1 32
2019-03-27 19:00:00 10.6 29 Nordeste 54 Norte 0 904.6 0.3 29
2019-03-27 18:00:00 11.5 31 Norte 64 Norte 0 904.3 -0.3 25
2019-03-27 17:00:00 12.5 37 Norte 61 Norte 0 904.1 -0.8 22
2019-03-27 16:00:00 13.7 34 Nordeste 60 Nordeste 0 904.3 -0.8 18
2019-03-27 15:00:00 14.5 32 Nordeste 57 Nordeste 0 904.6 -0.9 13
2019-03-27 14:00:00 15.5 26 Norte 42 Nordeste 0 904.9 -0.8 12
2019-03-27 13:00:00 15.1 18 Este 33 Nordeste 0 905.1 -0.5 12
2019-03-27 12:00:00 14.2 8 Sudeste 18 Sur 0 905.5 0 19
2019-03-27 11:00:00 12.1 8 Sudeste 15 Sudeste 0 905.7 0 21
2019-03-27 10:00:00 9.4 5 Sudeste 11 Sudeste 0 905.6 0.2 26
2019-03-27 09:00:00 6 6 Nordeste 14 Nordeste 0 905.5 0.4 30
2019-03-27 08:00:00 1.5 2 Norte 7 Nordeste 0 905.7 0.8 40
2019-03-27 07:00:00 1.9 6 Norte 13 Norte 0 905.4 0.6 37
2019-03-27 06:00:00 2.1 6 Nordeste 10 Nordeste 0 905.1 0.1 36
2019-03-27 05:00:00 1.9 4 Este 8 Norte 0 904.9 -0.2 35
2019-03-27 04:00:00 2 4 Norte 11 Nordeste 0 904.8 -0.2 33
2019-03-27 03:00:00 2.6 3 Sudoeste 12 Este 0 905 0.3 32
2019-03-27 02:00:00 2.4 4 Norte 9 Norte 0 905.1 0.4 31
2019-03-27 01:00:00 3.8 4 Oeste 7 Oeste 0 905 1 32
2019-03-27 00:00:00 4 4 Noroeste 8 Noroeste 0 904.7 1 31